Time;durP1;ratioP1;P1;durP2;ratioP2;P2;SDS_P1;SDS_P2;PMS_P1;PMS_P2;Temp;Humidity;BMP_temperature;BMP_pressure;BME280_temperature;BME280_humidity;BME280_pressure;Samples;Min_cycle;Max_cycle;Signal;HPM_P1;HPM_P2
2022/12/07 00:02:04;;;;;;;;;;;3.40;91.00;;;;;;5076720;28;19916;-77
2022/12/07 00:04:30;;;;;;;;;;;3.40;91.00;;;;;;5042927;28;19925;-77
2022/12/07 00:06:55;;;;;;;;;;;3.50;91.10;;;;;;5044996;28;19917;-77
2022/12/07 00:09:21;;;;;;;;;;;3.50;91.00;;;;;;5056167;28;20011;-78
2022/12/07 00:11:50;;;;;;;;;;;3.50;91.40;;;;;;5076845;28;19924;-77
2022/12/07 00:14:15;;;;;;;;;;;3.50;91.10;;;;;;5057565;28;19920;-77
2022/12/07 00:16:41;;;;;;;;;;;3.50;91.00;;;;;;5056155;28;19924;-77
2022/12/07 00:19:06;;;;;;;;;;;3.50;91.00;;;;;;5053920;28;19923;-77
2022/12/07 00:21:33;;;;;;;;;;;3.50;91.00;;;;;;5062496;28;19970;-77
2022/12/07 00:23:58;;;;;;;;;;;3.50;91.00;;;;;;5052738;28;19932;-76
2022/12/07 00:26:28;;;;;;;;;;;3.40;91.00;;;;;;5075428;28;20496;-77
2022/12/07 00:28:54;;;;;;;;;;;3.50;91.00;;;;;;5041783;28;19924;-78
2022/12/07 00:31:21;;;;;;;;;;;3.40;91.00;;;;;;5047050;28;19921;-77
2022/12/07 00:33:46;;;;;;;;;;;3.50;91.00;;;;;;5075391;28;19920;-77
2022/12/07 00:36:13;;;;;;;;;;;3.50;91.10;;;;;;5058156;28;19931;-77
2022/12/07 00:38:38;;;;;;;;;;;3.50;91.10;;;;;;5067158;28;19928;-76
2022/12/07 00:41:08;;;;;;;;;;;3.40;91.00;;;;;;5057976;28;20390;-76
2022/12/07 00:43:34;;;;;;;;;;;3.40;91.00;;;;;;5064377;28;19970;-76
2022/12/07 00:45:59;;;;;;;;;;;3.50;91.00;;;;;;5055970;28;20994;-76
2022/12/07 00:48:25;;;;;;;;;;;3.40;91.00;;;;;;5073630;28;20325;-77
2022/12/07 00:50:50;;;;;;;;;;;3.40;91.10;;;;;;5057823;28;19931;-77
2022/12/07 00:53:16;;;;;;;;;;;3.40;91.00;;;;;;5075044;28;19952;-78
2022/12/07 00:55:42;;;;;;;;;;;3.40;91.10;;;;;;5042379;28;19920;-76
2022/12/07 00:58:07;;;;;;;;;;;3.40;91.10;;;;;;5057577;28;20516;-77
2022/12/07 01:00:34;;;;;;;;;;;3.40;91.10;;;;;;5067141;28;19912;-77
2022/12/07 01:02:59;;;;;;;;;;;3.40;91.10;;;;;;5057190;28;19923;-78
2022/12/07 01:05:25;;;;;;;;;;;3.40;91.00;;;;;;5071070;28;19928;-78
2022/12/07 01:07:50;;;;;;;;;;;3.40;91.10;;;;;;5045337;28;19951;-76
2022/12/07 01:10:16;;;;;;;;;;;3.40;91.10;;;;;;5056334;28;20079;-77
2022/12/07 01:12:41;;;;;;;;;;;3.40;91.00;;;;;;5071563;28;19924;-77
2022/12/07 01:15:07;;;;;;;;;;;3.40;91.10;;;;;;5054557;28;19920;-77
2022/12/07 01:17:33;;;;;;;;;;;3.40;91.10;;;;;;5051614;28;19951;-77
2022/12/07 01:19:58;;;;;;;;;;;3.40;91.10;;;;;;5053408;28;19952;-77
2022/12/07 01:22:24;;;;;;;;;;;3.40;91.10;;;;;;5053498;28;19917;-77
2022/12/07 01:24:49;;;;;;;;;;;3.40;91.10;;;;;;5072937;28;19931;-77
2022/12/07 01:27:15;;;;;;;;;;;3.40;91.10;;;;;;5056114;28;19987;-77
2022/12/07 01:29:40;;;;;;;;;;;3.40;91.10;;;;;;5072905;28;19976;-77
2022/12/07 01:32:06;;;;;;;;;;;3.40;91.10;;;;;;5054738;28;20386;-77
2022/12/07 01:34:31;;;;;;;;;;;3.40;91.10;;;;;;5071601;28;20540;-77
2022/12/07 01:36:57;;;;;;;;;;;3.40;91.10;;;;;;5042251;28;19916;-77
2022/12/07 01:39:22;;;;;;;;;;;3.40;91.10;;;;;;5057780;28;19974;-78
2022/12/07 01:41:48;;;;;;;;;;;3.40;91.10;;;;;;5072074;28;20001;-77
2022/12/07 01:44:22;;;;;;;;;;;3.40;91.10;;;;;;5070637;28;19920;-78
2022/12/07 01:46:48;;;;;;;;;;;3.40;91.10;;;;;;5071452;28;19916;-78
2022/12/07 01:49:16;;;;;;;;;;;3.40;91.00;;;;;;5072333;28;19916;-77
2022/12/07 01:51:41;;;;;;;;;;;3.40;91.00;;;;;;5072493;28;19955;-77
2022/12/07 01:54:07;;;;;;;;;;;3.40;91.00;;;;;;5054403;28;19917;-78
2022/12/07 01:56:32;;;;;;;;;;;3.40;91.00;;;;;;5040092;28;20453;-77
2022/12/07 01:58:58;;;;;;;;;;;3.40;91.00;;;;;;5072972;28;19921;-77
2022/12/07 02:01:23;;;;;;;;;;;3.40;91.10;;;;;;5051379;28;20275;-76
2022/12/07 02:03:49;;;;;;;;;;;3.40;91.10;;;;;;5052870;28;19920;-77
2022/12/07 02:06:16;;;;;;;;;;;3.40;91.10;;;;;;5074218;28;19939;-77
2022/12/07 02:08:42;;;;;;;;;;;3.40;91.10;;;;;;5074622;28;19912;-77
2022/12/07 02:11:07;;;;;;;;;;;3.40;91.10;;;;;;5075827;28;19924;-77
2022/12/07 02:13:34;;;;;;;;;;;3.40;91.10;;;;;;5073004;28;20128;-78
2022/12/07 02:16:21;;;;;;;;;;;3.40;91.10;;;;;;5053816;28;19928;-77
2022/12/07 02:19:03;;;;;;;;;;;3.40;91.10;;;;;;5056636;28;19916;-78
2022/12/07 02:21:29;;;;;;;;;;;3.40;91.10;;;;;;5071814;28;20020;-77
2022/12/07 02:23:54;;;;;;;;;;;3.40;91.10;;;;;;5072130;28;19924;-78
2022/12/07 02:26:23;;;;;;;;;;;3.40;91.00;;;;;;5051768;28;19920;-77
2022/12/07 02:28:54;;;;;;;;;;;3.50;91.10;;;;;;5072653;28;19955;-77
2022/12/07 02:31:20;;;;;;;;;;;3.50;91.10;;;;;;5070433;28;19963;-78
2022/12/07 02:33:46;;;;;;;;;;;3.40;91.00;;;;;;5074579;28;19917;-77
2022/12/07 02:36:15;;;;;;;;;;;3.50;91.10;;;;;;5071297;28;20295;-78
2022/12/07 02:38:43;;;;;;;;;;;3.40;91.00;;;;;;5056975;28;19970;-77
2022/12/07 02:41:08;;;;;;;;;;;3.50;91.00;;;;;;5049038;28;19920;-75
2022/12/07 02:43:35;;;;;;;;;;;3.40;91.10;;;;;;5054131;28;19923;-76
2022/12/07 02:46:14;;;;;;;;;;;3.50;91.00;;;;;;5052119;28;19931;-75
2022/12/07 02:48:39;;;;;;;;;;;3.50;91.00;;;;;;5065111;28;19920;-78
2022/12/07 02:51:05;;;;;;;;;;;3.50;91.00;;;;;;5072836;28;19927;-78
2022/12/07 02:53:34;;;;;;;;;;;3.40;91.00;;;;;;5068757;28;19925;-76
2022/12/07 02:56:01;;;;;;;;;;;3.50;91.00;;;;;;5053622;28;19955;-76
2022/12/07 02:58:47;;;;;;;;;;;3.50;91.00;;;;;;5044491;28;19974;-77
2022/12/07 03:01:21;;;;;;;;;;;3.50;91.00;;;;;;5052903;28;19924;-78
2022/12/07 03:03:47;;;;;;;;;;;3.50;91.00;;;;;;5059211;28;20452;-77
2022/12/07 03:06:12;;;;;;;;;;;3.50;91.00;;;;;;5053283;28;19916;-78
2022/12/07 03:08:47;;;;;;;;;;;3.50;91.00;;;;;;5076785;28;19920;-77
2022/12/07 03:11:16;;;;;;;;;;;3.50;91.00;;;;;;5048409;28;19925;-78
2022/12/07 03:13:49;;;;;;;;;;;3.50;91.00;;;;;;5053629;28;19917;-77
2022/12/07 03:16:27;;;;;;;;;;;3.50;91.00;;;;;;5053345;28;19925;-77
2022/12/07 03:18:56;;;;;;;;;;;3.50;91.00;;;;;;5056485;28;19920;-77
2022/12/07 03:21:26;;;;;;;;;;;3.50;91.00;;;;;;5054059;28;19932;-78
2022/12/07 03:23:53;;;;;;;;;;;3.50;91.00;;;;;;5052583;28;19987;-77
2022/12/07 03:26:19;;;;;;;;;;;3.50;91.00;;;;;;5054959;28;19984;-78
2022/12/07 03:28:46;;;;;;;;;;;3.50;91.00;;;;;;5057704;28;19952;-78
2022/12/07 03:31:13;;;;;;;;;;;3.50;91.00;;;;;;5050832;28;19920;-76
2022/12/07 03:33:44;;;;;;;;;;;3.50;91.10;;;;;;5053620;28;20454;-78
2022/12/07 03:36:26;;;;;;;;;;;3.50;91.00;;;;;;5054400;28;19925;-77
2022/12/07 03:39:03;;;;;;;;;;;3.50;91.00;;;;;;5050406;28;20326;-77
2022/12/07 03:41:30;;;;;;;;;;;3.50;91.00;;;;;;5052442;28;20000;-78
2022/12/07 03:43:55;;;;;;;;;;;3.50;91.00;;;;;;5054102;28;19920;-77
2022/12/07 03:46:39;;;;;;;;;;;3.50;91.00;;;;;;5051052;28;19916;-78
2022/12/07 03:49:05;;;;;;;;;;;3.50;91.00;;;;;;5054722;28;20703;-78
2022/12/07 03:51:45;;;;;;;;;;;3.50;91.00;;;;;;5055310;28;19925;-77
2022/12/07 03:54:15;;;;;;;;;;;3.50;91.00;;;;;;5048274;28;19924;-75
2022/12/07 03:56:41;;;;;;;;;;;3.50;91.00;;;;;;5037020;28;20050;-77
2022/12/07 03:59:06;;;;;;;;;;;3.50;91.00;;;;;;5052923;28;19927;-78
2022/12/07 04:01:32;;;;;;;;;;;3.50;91.00;;;;;;5056039;28;20007;-78
2022/12/07 04:03:57;;;;;;;;;;;3.60;91.10;;;;;;5056070;28;19917;-77
2022/12/07 04:06:23;;;;;;;;;;;3.60;91.10;;;;;;5054374;28;19928;-77
2022/12/07 04:08:48;;;;;;;;;;;3.60;91.10;;;;;;5055678;28;19980;-78
2022/12/07 04:11:13;;;;;;;;;;;3.50;91.00;;;;;;5050290;28;19929;-78
2022/12/07 04:16:26;;;;;;;;;;;3.60;91.10;;;;;;5053076;28;19936;-77
2022/12/07 04:18:52;;;;;;;;;;;3.60;91.10;;;;;;5054129;28;19959;-77
2022/12/07 04:21:17;;;;;;;;;;;3.60;91.00;;;;;;5056840;28;19917;-76
2022/12/07 04:23:43;;;;;;;;;;;3.60;91.00;;;;;;5061066;28;19958;-76
2022/12/07 04:26:08;;;;;;;;;;;3.60;91.00;;;;;;5060453;28;19905;-77
2022/12/07 04:28:33;;;;;;;;;;;3.60;91.00;;;;;;5060559;28;19921;-78
2022/12/07 04:30:59;;;;;;;;;;;3.60;91.00;;;;;;5060848;28;19921;-78
2022/12/07 04:33:24;;;;;;;;;;;3.60;91.00;;;;;;5058947;28;20247;-77
2022/12/07 04:35:50;;;;;;;;;;;3.60;91.40;;;;;;5059104;28;19956;-76
2022/12/07 04:38:15;;;;;;;;;;;3.60;91.00;;;;;;5056686;28;19915;-75
2022/12/07 04:40:41;;;;;;;;;;;3.70;91.10;;;;;;5057760;28;19952;-76
2022/12/07 04:43:06;;;;;;;;;;;3.60;91.00;;;;;;5053643;28;20520;-76
2022/12/07 04:45:32;;;;;;;;;;;3.60;91.00;;;;;;5053693;28;19917;-77
2022/12/07 04:47:57;;;;;;;;;;;3.70;91.00;;;;;;5058137;28;19917;-76
2022/12/07 04:50:23;;;;;;;;;;;3.70;91.00;;;;;;5052314;28;19917;-77
2022/12/07 04:52:48;;;;;;;;;;;3.70;91.00;;;;;;5053084;28;19974;-77
2022/12/07 04:55:14;;;;;;;;;;;3.70;91.00;;;;;;5056719;28;19984;-76
2022/12/07 04:57:39;;;;;;;;;;;3.70;91.00;;;;;;5059951;28;19925;-77
2022/12/07 05:00:05;;;;;;;;;;;3.70;91.00;;;;;;5069361;28;19916;-77
2022/12/07 05:02:31;;;;;;;;;;;3.70;91.00;;;;;;5055282;28;20934;-77
2022/12/07 05:04:56;;;;;;;;;;;3.70;91.00;;;;;;5059623;28;19917;-77
2022/12/07 05:07:22;;;;;;;;;;;3.70;91.00;;;;;;5053911;28;19924;-76
2022/12/07 05:09:47;;;;;;;;;;;3.70;91.00;;;;;;5060877;28;19943;-75
2022/12/07 05:12:12;;;;;;;;;;;3.70;91.00;;;;;;5073770;28;19931;-77
2022/12/07 05:14:38;;;;;;;;;;;3.70;91.00;;;;;;5055793;28;19929;-75
2022/12/07 05:17:04;;;;;;;;;;;3.70;91.00;;;;;;5073425;28;19984;-76
2022/12/07 05:19:29;;;;;;;;;;;3.70;91.00;;;;;;5059438;28;20137;-76
2022/12/07 05:21:55;;;;;;;;;;;3.60;91.00;;;;;;5078735;28;19920;-76
2022/12/07 05:24:20;;;;;;;;;;;3.60;91.00;;;;;;5064955;28;19973;-76
2022/12/07 05:26:46;;;;;;;;;;;3.60;91.00;;;;;;5061333;28;19959;-76
2022/12/07 05:29:12;;;;;;;;;;;3.60;91.00;;;;;;5055700;28;19931;-76
2022/12/07 05:31:37;;;;;;;;;;;3.60;91.00;;;;;;5057307;28;19925;-76
2022/12/07 05:34:03;;;;;;;;;;;3.60;91.00;;;;;;5060191;28;19951;-76
2022/12/07 05:36:30;;;;;;;;;;;3.70;91.00;;;;;;5043597;28;20379;-77
2022/12/07 05:38:56;;;;;;;;;;;3.60;91.00;;;;;;5077702;28;19940;-77
2022/12/07 05:44:06;;;;;;;;;;;3.70;91.00;;;;;;5081020;28;19994;-78
2022/12/07 05:46:31;;;;;;;;;;;3.60;91.00;;;;;;5070940;28;19913;-77
2022/12/07 05:48:57;;;;;;;;;;;3.70;91.00;;;;;;5077326;28;19917;-77
2022/12/07 05:51:22;;;;;;;;;;;3.70;91.00;;;;;;5082111;28;19924;-77
2022/12/07 05:53:48;;;;;;;;;;;3.70;91.00;;;;;;5083224;28;19905;-78
2022/12/07 05:56:13;;;;;;;;;;;3.70;91.00;;;;;;5082595;28;19988;-77
2022/12/07 06:01:23;;;;;;;;;;;3.70;91.00;;;;;;5066623;28;19916;-77
2022/12/07 06:03:48;;;;;;;;;;;3.70;91.00;;;;;;5082451;28;19920;-77
2022/12/07 06:06:14;;;;;;;;;;;3.70;91.00;;;;;;5045966;28;19967;-77
2022/12/07 06:08:39;;;;;;;;;;;3.70;91.00;;;;;;5063150;28;20524;-76
2022/12/07 06:13:49;;;;;;;;;;;3.70;91.00;;;;;;5064412;28;19932;-76
2022/12/07 06:16:14;;;;;;;;;;;3.70;91.00;;;;;;5060291;28;19921;-76
2022/12/07 06:18:40;;;;;;;;;;;3.70;91.00;;;;;;5060411;28;19921;-77
2022/12/07 06:21:05;;;;;;;;;;;3.70;91.00;;;;;;5059375;28;19921;-78
2022/12/07 06:23:31;;;;;;;;;;;3.70;91.00;;;;;;5059452;28;19933;-77
2022/12/07 06:25:56;;;;;;;;;;;3.70;91.00;;;;;;5062599;28;19984;-76
2022/12/07 06:28:22;;;;;;;;;;;3.70;91.10;;;;;;5065766;28;19913;-78
2022/12/07 06:30:47;;;;;;;;;;;3.70;91.00;;;;;;5065785;28;19921;-77
2022/12/07 06:33:13;;;;;;;;;;;3.70;91.00;;;;;;5060052;28;20000;-77
2022/12/07 06:35:38;;;;;;;;;;;3.70;91.40;;;;;;5063117;28;20624;-78
2022/12/07 06:38:04;;;;;;;;;;;3.70;91.00;;;;;;5064481;28;19955;-77
2022/12/07 06:40:29;;;;;;;;;;;3.70;91.00;;;;;;5062369;28;19912;-77
2022/12/07 06:42:54;;;;;;;;;;;3.70;91.00;;;;;;5065437;28;19928;-77
2022/12/07 06:45:20;;;;;;;;;;;3.80;91.00;;;;;;5063079;28;19979;-78
2022/12/07 06:47:45;;;;;;;;;;;3.80;91.00;;;;;;5065899;28;19916;-76
2022/12/07 06:50:11;;;;;;;;;;;3.80;91.00;;;;;;5058795;28;19927;-77
2022/12/07 06:52:36;;;;;;;;;;;3.70;91.00;;;;;;5080449;28;19925;-78
2022/12/07 06:55:02;;;;;;;;;;;3.80;91.00;;;;;;5063328;28;19960;-76
2022/12/07 06:57:27;;;;;;;;;;;3.80;91.00;;;;;;5063479;28;19917;-78
2022/12/07 06:59:53;;;;;;;;;;;3.80;91.00;;;;;;5065823;28;19909;-77
2022/12/07 07:02:18;;;;;;;;;;;3.80;91.00;;;;;;5059347;28;19921;-76
2022/12/07 07:04:44;;;;;;;;;;;3.80;91.00;;;;;;5064044;28;20007;-77
2022/12/07 07:07:10;;;;;;;;;;;3.80;91.00;;;;;;5064217;28;19928;-76
2022/12/07 07:09:37;;;;;;;;;;;3.80;91.00;;;;;;5059770;28;19909;-78
2022/12/07 07:12:03;;;;;;;;;;;3.80;91.00;;;;;;5067125;28;19905;-77
2022/12/07 07:14:28;;;;;;;;;;;3.80;91.00;;;;;;5076430;28;19981;-78
2022/12/07 07:16:54;;;;;;;;;;;3.80;91.00;;;;;;5082079;28;19961;-73
2022/12/07 07:19:19;;;;;;;;;;;3.80;91.00;;;;;;5078515;28;19912;-77
2022/12/07 07:21:45;;;;;;;;;;;3.80;91.00;;;;;;5085742;28;19931;-78
2022/12/07 07:24:10;;;;;;;;;;;3.80;91.00;;;;;;5085067;28;19927;-78
2022/12/07 07:26:36;;;;;;;;;;;3.90;91.00;;;;;;5073299;28;19905;-79
2022/12/07 07:29:01;;;;;;;;;;;3.90;91.00;;;;;;5081798;28;19916;-77
2022/12/07 07:31:27;;;;;;;;;;;3.90;91.00;;;;;;5083106;28;19975;-78
2022/12/07 07:33:52;;;;;;;;;;;3.90;91.00;;;;;;5081364;28;19958;-77
2022/12/07 07:36:18;;;;;;;;;;;3.90;91.00;;;;;;5081500;28;19980;-75
2022/12/07 07:38:43;;;;;;;;;;;3.90;91.00;;;;;;5072943;28;19920;-76
2022/12/07 07:41:09;;;;;;;;;;;3.90;91.00;;;;;;5056053;28;19921;-77
2022/12/07 07:43:34;;;;;;;;;;;3.90;91.00;;;;;;5086959;28;20101;-77
2022/12/07 07:46:00;;;;;;;;;;;4.00;91.00;;;;;;5087782;28;20003;-77
2022/12/07 07:48:25;;;;;;;;;;;4.00;91.00;;;;;;5063778;28;19904;-76
2022/12/07 07:50:51;;;;;;;;;;;4.00;91.00;;;;;;5037931;28;19963;-77
2022/12/07 07:53:16;;;;;;;;;;;4.00;91.00;;;;;;5068377;28;19924;-77
2022/12/07 07:55:49;;;;;;;;;;;4.00;91.00;;;;;;5078719;28;19909;-77
2022/12/07 07:58:15;;;;;;;;;;;4.00;91.00;;;;;;5060941;28;19999;-77
2022/12/07 08:00:40;;;;;;;;;;;4.00;91.00;;;;;;5083813;28;19908;-76
2022/12/07 08:03:06;;;;;;;;;;;4.10;91.00;;;;;;5076733;28;20023;-77
2022/12/07 08:05:31;;;;;;;;;;;4.00;91.00;;;;;;5083712;28;19924;-78
2022/12/07 08:07:57;;;;;;;;;;;4.10;91.00;;;;;;5082186;28;19923;-77
2022/12/07 08:10:22;;;;;;;;;;;4.10;91.00;;;;;;5078824;28;19955;-77
2022/12/07 08:15:32;;;;;;;;;;;4.10;91.00;;;;;;5067575;28;19950;-78
2022/12/07 08:17:58;;;;;;;;;;;4.10;91.00;;;;;;5067001;28;19917;-77
2022/12/07 08:20:23;;;;;;;;;;;4.10;90.90;;;;;;5061361;28;20363;-78
2022/12/07 08:22:49;;;;;;;;;;;4.20;91.00;;;;;;5081524;28;19924;-77
2022/12/07 08:25:14;;;;;;;;;;;4.20;91.00;;;;;;5079055;28;19917;-76
2022/12/07 08:27:40;;;;;;;;;;;4.20;91.00;;;;;;5082594;28;19946;-76
2022/12/07 08:30:05;;;;;;;;;;;4.20;90.90;;;;;;5080140;28;19931;-78
2022/12/07 08:32:31;;;;;;;;;;;4.20;90.90;;;;;;5078436;28;19931;-77
2022/12/07 08:34:57;;;;;;;;;;;4.20;90.90;;;;;;5067520;28;19908;-76
2022/12/07 08:37:22;;;;;;;;;;;4.20;90.90;;;;;;5061926;28;19929;-78
2022/12/07 08:39:48;;;;;;;;;;;4.30;91.00;;;;;;5081855;28;20064;-78
2022/12/07 08:42:13;;;;;;;;;;;4.30;91.00;;;;;;5063832;28;19904;-75
2022/12/07 08:44:40;;;;;;;;;;;4.30;91.00;;;;;;5076302;28;20203;-77
2022/12/07 08:47:05;;;;;;;;;;;4.30;90.90;;;;;;5062376;28;19943;-77
2022/12/07 08:49:36;;;;;;;;;;;4.30;90.90;;;;;;5078370;28;19928;-78
2022/12/07 08:52:02;;;;;;;;;;;4.40;91.00;;;;;;5062358;28;19931;-77
2022/12/07 08:54:28;;;;;;;;;;;4.30;90.90;;;;;;5079379;28;19927;-76
2022/12/07 08:56:54;;;;;;;;;;;4.40;91.00;;;;;;5065353;28;20019;-78
2022/12/07 08:59:19;;;;;;;;;;;4.40;91.00;;;;;;5073906;28;19987;-78
2022/12/07 09:01:45;;;;;;;;;;;4.40;90.90;;;;;;5061441;28;19924;-77
2022/12/07 09:04:10;;;;;;;;;;;4.40;90.90;;;;;;5053167;28;19905;-77
2022/12/07 09:06:36;;;;;;;;;;;4.50;90.90;;;;;;5060089;28;20124;-79
2022/12/07 09:09:02;;;;;;;;;;;4.50;90.90;;;;;;5062500;28;19917;-78
2022/12/07 09:11:27;;;;;;;;;;;4.50;90.90;;;;;;5072978;28;19921;-78
2022/12/07 09:13:53;;;;;;;;;;;4.50;90.90;;;;;;5058471;28;19924;-79
2022/12/07 09:16:18;;;;;;;;;;;4.60;90.90;;;;;;5058306;28;19984;-77
2022/12/07 09:18:44;;;;;;;;;;;4.60;90.90;;;;;;5055309;28;19943;-77
2022/12/07 09:21:09;;;;;;;;;;;4.60;90.90;;;;;;5062265;28;19924;-77
2022/12/07 09:23:35;;;;;;;;;;;4.60;90.90;;;;;;5060344;28;20375;-76
2022/12/07 09:26:01;;;;;;;;;;;4.60;90.90;;;;;;5079691;28;19955;-77
2022/12/07 09:28:26;;;;;;;;;;;4.70;90.90;;;;;;5078715;28;19920;-78
2022/12/07 09:30:52;;;;;;;;;;;4.70;90.90;;;;;;5066777;28;19931;-78
2022/12/07 09:33:17;;;;;;;;;;;4.70;90.90;;;;;;5071991;28;19905;-77
2022/12/07 09:35:48;;;;;;;;;;;4.70;90.90;;;;;;5071950;28;19955;-77
2022/12/07 09:38:13;;;;;;;;;;;4.70;90.90;;;;;;5050349;28;19921;-78
2022/12/07 09:40:39;;;;;;;;;;;4.80;90.90;;;;;;5081442;28;20009;-77
2022/12/07 09:43:04;;;;;;;;;;;4.80;90.90;;;;;;5064717;28;20329;-78
2022/12/07 09:45:32;;;;;;;;;;;4.90;90.90;;;;;;5072030;28;19917;-76
2022/12/07 09:47:57;;;;;;;;;;;4.90;90.90;;;;;;5064799;28;20036;-78
2022/12/07 09:50:24;;;;;;;;;;;4.90;90.80;;;;;;5056277;28;19991;-78
2022/12/07 09:52:49;;;;;;;;;;;4.90;90.80;;;;;;5072472;28;19931;-76
2022/12/07 09:55:35;;;;;;;;;;;5.00;90.90;;;;;;5045961;28;19928;-76
2022/12/07 09:58:08;;;;;;;;;;;4.90;90.80;;;;;;5009319;28;19916;-77
2022/12/07 10:00:36;;;;;;;;;;;5.00;90.80;;;;;;5046700;28;19917;-77
2022/12/07 10:03:08;;;;;;;;;;;5.00;90.80;;;;;;5030180;28;19916;-78
2022/12/07 10:05:41;;;;;;;;;;;5.00;90.80;;;;;;5617366;22;19928;-77
2022/12/07 10:08:11;;;;;;;;;;;5.10;90.80;;;;;;6020437;23;19956;-78
2022/12/07 10:10:39;;;;;;;;;;;5.10;90.80;;;;;;6038255;23;19928;-76
2022/12/07 10:13:12;;;;;;;;;;;5.10;90.80;;;;;;6061526;23;19944;-76
2022/12/07 10:15:52;;;;;;;;;;;5.10;90.80;;;;;;6020007;23;19920;-77
2022/12/07 10:18:25;;;;;;;;;;;5.10;90.80;;;;;;6062493;23;19958;-75
2022/12/07 10:21:01;;;;;;;;;;;5.20;90.80;;;;;;6025864;23;19904;-76
2022/12/07 10:23:27;;;;;;;;;;;5.20;90.80;;;;;;6025340;23;20448;-77
2022/12/07 10:25:54;;;;;;;;;;;5.20;90.80;;;;;;6045781;23;19908;-78
2022/12/07 10:28:20;;;;;;;;;;;5.30;90.80;;;;;;6060767;23;19920;-77
2022/12/07 10:30:53;;;;;;;;;;;5.30;90.80;;;;;;6068682;23;19904;-76
2022/12/07 10:33:38;;;;;;;;;;;5.40;90.80;;;;;;6039284;23;19932;-77
2022/12/07 10:36:18;;;;;;;;;;;5.40;90.80;;;;;;6065834;23;19920;-76
2022/12/07 10:38:48;;;;;;;;;;;5.40;90.70;;;;;;6042280;23;19904;-75
2022/12/07 10:41:13;;;;;;;;;;;5.50;90.70;;;;;;6062027;23;19908;-76
2022/12/07 10:43:46;;;;;;;;;;;5.50;90.70;;;;;;6038952;23;19966;-76
2022/12/07 10:46:18;;;;;;;;;;;5.60;90.70;;;;;;6038307;23;19964;-76
2022/12/07 10:49:02;;;;;;;;;;;5.60;90.70;;;;;;6029187;23;19917;-77
2022/12/07 10:51:46;;;;;;;;;;;5.70;90.70;;;;;;6032284;23;19912;-75
2022/12/07 10:54:27;;;;;;;;;;;5.80;90.80;;;;;;6042245;23;19897;-76
2022/12/07 10:57:12;;;;;;;;;;;6.00;90.80;;;;;;6038785;23;19921;-75
2022/12/07 10:59:40;;;;;;;;;;;6.20;90.80;;;;;;6041884;23;19924;-76
2022/12/07 11:02:12;;;;;;;;;;;6.30;90.70;;;;;;6053071;23;19928;-76
2022/12/07 11:04:37;;;;;;;;;;;6.50;90.70;;;;;;6060899;23;19928;-76
2022/12/07 11:07:03;;;;;;;;;;;6.60;90.60;;;;;;6039906;23;19920;-76
2022/12/07 11:09:46;;;;;;;;;;;6.60;90.50;;;;;;6038791;23;19917;-76
2022/12/07 11:12:17;;;;;;;;;;;6.70;90.40;;;;;;6030465;23;21385;-76
2022/12/07 11:14:52;;;;;;;;;;;6.70;90.40;;;;;;6017984;23;19992;-75
2022/12/07 11:17:18;;;;;;;;;;;6.80;90.40;;;;;;6019007;23;19912;-76
2022/12/07 11:19:50;;;;;;;;;;;6.80;90.30;;;;;;6014604;23;19967;-76
2022/12/07 11:22:18;;;;;;;;;;;6.80;90.30;;;;;;6018197;23;19999;-76
2022/12/07 11:24:49;;;;;;;;;;;6.80;90.30;;;;;;6017475;23;19913;-76
2022/12/07 11:27:19;;;;;;;;;;;6.80;90.30;;;;;;6016867;23;19940;-76
2022/12/07 11:30:03;;;;;;;;;;;6.80;90.20;;;;;;6016853;23;19992;-76
2022/12/07 11:32:46;;;;;;;;;;;6.70;90.20;;;;;;6017250;23;19917;-76
2022/12/07 11:35:30;;;;;;;;;;;6.70;90.20;;;;;;6021676;23;19913;-77
2022/12/07 11:37:58;;;;;;;;;;;6.70;90.20;;;;;;6030799;23;19967;-76
2022/12/07 11:40:23;;;;;;;;;;;6.70;90.30;;;;;;6030460;23;19913;-77
2022/12/07 11:42:59;;;;;;;;;;;6.70;90.30;;;;;;6037444;23;19912;-76
2022/12/07 11:45:28;;;;;;;;;;;6.70;90.30;;;;;;6042567;23;19908;-77
2022/12/07 11:47:55;;;;;;;;;;;6.70;90.30;;;;;;6039655;23;19909;-77
2022/12/07 11:50:26;;;;;;;;;;;6.70;90.30;;;;;;6032839;23;19931;-75
2022/12/07 11:52:57;;;;;;;;;;;6.70;90.30;;;;;;6044192;23;19908;-78
2022/12/07 11:55:39;;;;;;;;;;;6.70;90.30;;;;;;6033889;23;19999;-77
2022/12/07 11:58:11;;;;;;;;;;;6.70;90.30;;;;;;6061170;23;19968;-78
2022/12/07 12:00:37;;;;;;;;;;;6.70;90.20;;;;;;6034304;23;20012;-75
2022/12/07 12:03:13;;;;;;;;;;;6.70;90.20;;;;;;5991328;23;19920;-77
2022/12/07 12:05:38;;;;;;;;;;;6.70;90.20;;;;;;6002706;23;19925;-78
2022/12/07 12:08:04;;;;;;;;;;;6.70;90.30;;;;;;6036491;23;19964;-77
2022/12/07 12:10:42;;;;;;;;;;;6.60;90.30;;;;;;6040880;23;19935;-76
2022/12/07 12:13:14;;;;;;;;;;;6.60;90.20;;;;;;6043460;23;19980;-76
2022/12/07 12:15:42;;;;;;;;;;;6.60;90.20;;;;;;6035503;23;19901;-76
2022/12/07 12:18:14;;;;;;;;;;;6.60;90.20;;;;;;6038411;23;20115;-77
2022/12/07 12:20:43;;;;;;;;;;;6.60;90.20;;;;;;6038430;23;19938;-78
2022/12/07 12:23:16;;;;;;;;;;;6.60;90.20;;;;;;6036863;23;19916;-75
2022/12/07 12:25:45;;;;;;;;;;;6.60;90.20;;;;;;6032855;23;19932;-76
2022/12/07 12:28:20;;;;;;;;;;;6.60;90.20;;;;;;6038998;23;19912;-76
2022/12/07 12:30:46;;;;;;;;;;;6.60;90.20;;;;;;6037292;23;19913;-77
2022/12/07 12:33:20;;;;;;;;;;;6.60;90.20;;;;;;6027559;23;20280;-77
2022/12/07 12:35:45;;;;;;;;;;;6.60;90.20;;;;;;6008763;23;19948;-77
2022/12/07 12:38:35;;;;;;;;;;;6.60;90.20;;;;;;6009706;23;19912;-77
2022/12/07 12:41:01;;;;;;;;;;;6.70;90.20;;;;;;6024171;23;19966;-79
2022/12/07 12:44:02;;;;;;;;;;;6.70;90.20;;;;;;6030053;23;19921;-75
2022/12/07 12:46:33;;;;;;;;;;;6.80;90.30;;;;;;5917187;24;19917;-76
2022/12/07 12:49:26;;;;;;;;;;;7.00;90.40;;;;;;5916174;24;20020;-77
2022/12/07 12:51:52;;;;;;;;;;;7.00;90.40;;;;;;5866108;24;19925;-76
2022/12/07 12:54:17;;;;;;;;;;;7.10;90.20;;;;;;5927954;24;19917;-76
2022/12/07 12:56:52;;;;;;;;;;;7.10;90.20;;;;;;5924297;24;19914;-79
2022/12/07 12:59:28;;;;;;;;;;;7.10;90.10;;;;;;5920860;24;19914;-72
2022/12/07 13:02:06;;;;;;;;;;;7.10;90.10;;;;;;5884903;24;19921;-71
2022/12/07 13:04:37;;;;;;;;;;;7.10;90.10;;;;;;5925099;24;19917;-76
2022/12/07 13:07:03;;;;;;;;;;;7.00;90.00;;;;;;5931471;24;19906;-77
2022/12/07 13:09:31;;;;;;;;;;;7.00;90.00;;;;;;5933661;24;19995;-76
2022/12/07 13:11:59;;;;;;;;;;;6.90;90.00;;;;;;5934962;24;19898;-78
2022/12/07 13:14:40;;;;;;;;;;;6.90;90.10;;;;;;5910521;24;19920;-78
2022/12/07 13:17:25;;;;;;;;;;;6.90;90.10;;;;;;5930950;24;19910;-77
2022/12/07 13:19:54;;;;;;;;;;;6.80;90.00;;;;;;5958293;23;19908;-75
2022/12/07 13:22:32;;;;;;;;;;;6.80;90.10;;;;;;6016263;23;19924;-76
2022/12/07 13:24:57;;;;;;;;;;;6.80;90.10;;;;;;6017101;23;19897;-76
2022/12/07 13:27:26;;;;;;;;;;;6.80;90.10;;;;;;6011717;23;19913;-76
2022/12/07 13:29:52;;;;;;;;;;;6.70;90.10;;;;;;6014879;23;19917;-76
2022/12/07 13:32:24;;;;;;;;;;;6.70;90.00;;;;;;6016664;23;19924;-75
2022/12/07 13:34:50;;;;;;;;;;;6.70;90.10;;;;;;6039450;23;19948;-78
2022/12/07 13:37:18;;;;;;;;;;;6.60;90.00;;;;;;6017878;23;19933;-78
2022/12/07 13:39:45;;;;;;;;;;;6.60;90.10;;;;;;6013947;23;19913;-77
2022/12/07 13:42:15;;;;;;;;;;;6.50;90.00;;;;;;6019927;23;19909;-77
2022/12/07 13:44:41;;;;;;;;;;;6.50;90.00;;;;;;5981679;23;19920;-79
2022/12/07 13:47:17;;;;;;;;;;;6.40;90.00;;;;;;6018954;23;19935;-77
2022/12/07 13:49:46;;;;;;;;;;;6.40;90.10;;;;;;6018200;23;20391;-78
2022/12/07 13:52:16;;;;;;;;;;;6.30;90.10;;;;;;5992663;23;19952;-78
2022/12/07 13:54:49;;;;;;;;;;;6.30;90.10;;;;;;6034463;23;19897;-78
2022/12/07 13:57:17;;;;;;;;;;;6.20;90.00;;;;;;5990104;23;20645;-77
2022/12/07 13:59:43;;;;;;;;;;;6.20;90.00;;;;;;5995303;23;19913;-78
2022/12/07 14:02:22;;;;;;;;;;;6.10;90.00;;;;;;6044864;23;19940;-80
2022/12/07 14:04:48;;;;;;;;;;;6.10;90.00;;;;;;6021540;23;19935;-77
2022/12/07 14:07:21;;;;;;;;;;;6.00;90.00;;;;;;6042164;23;19917;-78
2022/12/07 14:09:54;;;;;;;;;;;5.90;90.00;;;;;;6023697;23;19970;-77
2022/12/07 14:12:19;;;;;;;;;;;5.90;90.10;;;;;;6013988;23;20110;-76
2022/12/07 14:14:47;;;;;;;;;;;5.90;90.10;;;;;;6044915;23;19909;-76
2022/12/07 14:17:15;;;;;;;;;;;5.80;90.10;;;;;;6023898;23;19912;-78
2022/12/07 14:19:43;;;;;;;;;;;5.80;90.10;;;;;;6044030;23;19919;-79
2022/12/07 14:22:15;;;;;;;;;;;5.80;90.20;;;;;;6036087;23;19900;-77
2022/12/07 14:24:43;;;;;;;;;;;5.70;90.10;;;;;;6035680;23;19921;-77
2022/12/07 14:27:19;;;;;;;;;;;5.70;90.20;;;;;;6032309;23;19964;-77
2022/12/07 14:29:44;;;;;;;;;;;5.70;90.20;;;;;;6034714;23;19973;-78
2022/12/07 14:32:19;;;;;;;;;;;5.60;90.20;;;;;;6030595;23;19913;-76
2022/12/07 14:34:53;;;;;;;;;;;5.60;90.20;;;;;;6032509;23;19915;-77
2022/12/07 14:37:18;;;;;;;;;;;5.60;90.20;;;;;;6037385;23;19913;-79
2022/12/07 14:39:44;;;;;;;;;;;5.50;90.20;;;;;;6040484;23;19916;-78
2022/12/07 14:42:09;;;;;;;;;;;5.50;90.30;;;;;;6036038;23;19932;-77
2022/12/07 14:44:35;;;;;;;;;;;5.50;90.50;;;;;;6041107;23;19935;-77
2022/12/07 14:47:00;;;;;;;;;;;5.50;90.50;;;;;;6045093;23;19913;-76
2022/12/07 14:49:26;;;;;;;;;;;5.60;90.50;;;;;;6064594;23;19920;-77
2022/12/07 14:51:53;;;;;;;;;;;5.50;90.40;;;;;;6036501;23;19912;-77